Time;durP1;ratioP1;P1;durP2;ratioP2;P2;SDS_P1;SDS_P2;PMS_P1;PMS_P2;Temp;Humidity;BMP_temperature;BMP_pressure;BME280_temperature;BME280_humidity;BME280_pressure;Samples;Min_cycle;Max_cycle;Signal;HPM_P1;HPM_P2
2021/10/30 00:01:16;;;;;;;;;;;;;;;12.43;nan;97031.53;5082180;28;19925;-83
2021/10/30 00:03:43;;;;;;;;;;;;;;;11.70;nan;97019.53;5101318;28;20432;-82
2021/10/30 00:06:10;;;;;;;;;;;;;;;11.58;nan;97028.94;5079931;28;19931;-82
2021/10/30 00:08:38;;;;;;;;;;;;;;;11.71;nan;97015.47;5064453;28;19979;-82
2021/10/30 00:11:05;;;;;;;;;;;;;;;12.18;nan;97020.94;5077045;28;19923;-82
2021/10/30 00:13:32;;;;;;;;;;;;;;;12.76;nan;97028.50;5076085;28;20290;-83
2021/10/30 00:15:59;;;;;;;;;;;;;;;12.89;nan;97014.16;5102026;28;19930;-82
2021/10/30 00:18:27;;;;;;;;;;;;;;;13.00;nan;97006.72;5084640;28;19927;-82
2021/10/30 00:20:54;;;;;;;;;;;;;;;12.78;nan;96998.72;5051062;28;19924;-82
2021/10/30 00:23:22;;;;;;;;;;;;;;;12.69;nan;96996.03;5099832;28;19924;-82
2021/10/30 00:25:49;;;;;;;;;;;;;;;13.15;nan;96989.81;5055441;28;19931;-82
2021/10/30 00:28:17;;;;;;;;;;;;;;;13.40;nan;96980.72;5087618;28;19931;-82
2021/10/30 00:30:45;;;;;;;;;;;;;;;12.86;nan;96975.91;5087870;28;19924;-83
2021/10/30 00:33:12;;;;;;;;;;;;;;;12.94;nan;96977.81;5067574;28;19923;-83
2021/10/30 00:35:39;;;;;;;;;;;;;;;12.13;nan;96979.59;5092988;28;19939;-83
2021/10/30 00:38:07;;;;;;;;;;;;;;;12.73;nan;96985.41;5087746;28;19924;-82
2021/10/30 00:40:34;;;;;;;;;;;;;;;12.54;nan;96980.53;5091483;28;19924;-83
2021/10/30 00:43:03;;;;;;;;;;;;;;;11.43;nan;96988.19;5067489;28;19924;-83
2021/10/30 00:45:30;;;;;;;;;;;;;;;12.44;nan;96979.09;5064159;28;19928;-82
2021/10/30 00:47:58;;;;;;;;;;;;;;;12.68;nan;96974.13;5032861;28;20432;-83
2021/10/30 00:50:25;;;;;;;;;;;;;;;12.69;nan;96979.22;5059068;28;19974;-83
2021/10/30 00:52:53;;;;;;;;;;;;;;;12.65;nan;96967.47;5075568;28;19931;-83
2021/10/30 00:55:21;;;;;;;;;;;;;;;13.11;nan;96964.81;5058529;28;19924;-82
2021/10/30 00:57:50;;;;;;;;;;;;;;;12.18;nan;96975.34;5071933;28;19931;-83
2021/10/30 01:00:18;;;;;;;;;;;;;;;11.77;nan;96960.41;5073109;28;19946;-83
2021/10/30 01:02:46;;;;;;;;;;;;;;;12.14;nan;96961.56;5067535;28;19931;-83
2021/10/30 01:05:13;;;;;;;;;;;;;;;12.17;nan;96948.63;5062304;28;20418;-83
2021/10/30 01:07:40;;;;;;;;;;;;;;;12.65;nan;96947.84;5091175;28;19925;-83
2021/10/30 01:10:08;;;;;;;;;;;;;;;12.99;nan;96929.47;5085704;28;19928;-83
2021/10/30 01:12:35;;;;;;;;;;;;;;;12.30;nan;96935.88;5064647;28;19931;-83
2021/10/30 01:15:05;;;;;;;;;;;;;;;13.01;nan;96943.03;5042429;28;19924;-83
2021/10/30 01:17:35;;;;;;;;;;;;;;;12.59;nan;96929.41;5077298;28;19931;-83
2021/10/30 01:20:02;;;;;;;;;;;;;;;12.77;nan;96920.75;5063489;28;19924;-82
2021/10/30 01:22:30;;;;;;;;;;;;;;;12.78;nan;96920.25;5069556;28;20287;-83
2021/10/30 01:24:58;;;;;;;;;;;;;;;12.03;nan;96930.59;5058584;28;19924;-83
2021/10/30 01:27:25;;;;;;;;;;;;;;;12.42;nan;96934.00;5067713;28;19924;-83
2021/10/30 01:29:52;;;;;;;;;;;;;;;12.37;nan;96915.84;5109576;28;19931;-83
2021/10/30 01:32:20;;;;;;;;;;;;;;;12.30;nan;96902.25;5067965;28;19924;-83
2021/10/30 01:34:47;;;;;;;;;;;;;;;12.65;nan;96891.81;5082856;28;19928;-83
2021/10/30 01:37:15;;;;;;;;;;;;;;;12.53;nan;96906.16;5107426;28;19924;-83
2021/10/30 01:39:42;;;;;;;;;;;;;;;12.32;nan;96902.56;5094706;28;19924;-83
2021/10/30 01:42:09;;;;;;;;;;;;;;;12.54;nan;96883.25;5084228;28;19930;-83
2021/10/30 01:44:37;;;;;;;;;;;;;;;12.87;nan;96884.97;5061701;28;19928;-83
2021/10/30 01:47:04;;;;;;;;;;;;;;;13.18;nan;96879.50;5069764;28;19925;-83
2021/10/30 01:49:31;;;;;;;;;;;;;;;13.36;nan;96863.13;5067221;28;20280;-83
2021/10/30 01:51:59;;;;;;;;;;;;;;;13.55;nan;96872.78;5106969;28;20315;-83
2021/10/30 01:54:27;;;;;;;;;;;;;;;13.39;nan;96867.00;5089519;28;19924;-83
2021/10/30 01:56:56;;;;;;;;;;;;;;;12.84;nan;96855.13;5076557;28;20273;-83
2021/10/30 01:59:23;;;;;;;;;;;;;;;13.11;nan;96857.50;5081397;28;20286;-83
2021/10/30 02:01:50;;;;;;;;;;;;;;;13.18;nan;96862.69;5112257;28;20272;-83
2021/10/30 02:04:18;;;;;;;;;;;;;;;13.31;nan;96844.25;5058102;28;19939;-83
2021/10/30 02:06:46;;;;;;;;;;;;;;;12.95;nan;96844.81;5057927;28;19924;-83
2021/10/30 02:09:14;;;;;;;;;;;;;;;13.02;nan;96838.81;5033103;28;20302;-83
2021/10/30 02:11:41;;;;;;;;;;;;;;;12.68;nan;96837.63;5080079;28;20375;-83
2021/10/30 02:14:08;;;;;;;;;;;;;;;11.16;nan;96854.25;5077511;28;19962;-83
2021/10/30 02:16:36;;;;;;;;;;;;;;;12.37;nan;96840.25;5089680;28;19931;-83
2021/10/30 02:19:04;;;;;;;;;;;;;;;11.88;nan;96839.53;5074391;28;20380;-83
2021/10/30 02:21:31;;;;;;;;;;;;;;;11.37;nan;96853.91;5091102;28;20324;-83
2021/10/30 02:23:58;;;;;;;;;;;;;;;12.52;nan;96841.00;5075413;28;20387;-83
2021/10/30 02:26:26;;;;;;;;;;;;;;;12.46;nan;96837.31;5064300;28;19925;-83
2021/10/30 02:28:53;;;;;;;;;;;;;;;12.77;nan;96833.91;5057678;28;19924;-84
2021/10/30 02:31:20;;;;;;;;;;;;;;;12.47;nan;96833.28;5025194;28;19989;-84
2021/10/30 02:33:48;;;;;;;;;;;;;;;12.93;nan;96824.16;5046936;28;20391;-83
2021/10/30 02:36:15;;;;;;;;;;;;;;;12.85;nan;96820.22;5096169;28;20406;-84
2021/10/30 02:38:42;;;;;;;;;;;;;;;12.25;nan;96809.81;5044913;28;19931;-83
2021/10/30 02:41:10;;;;;;;;;;;;;;;12.63;nan;96823.56;5075266;28;20456;-83
2021/10/30 02:43:37;;;;;;;;;;;;;;;12.58;nan;96816.63;5075247;28;20372;-84
2021/10/30 02:46:04;;;;;;;;;;;;;;;12.86;nan;96782.56;5074860;28;20295;-83
2021/10/30 02:48:35;;;;;;;;;;;;;;;11.72;nan;96773.66;5064030;28;19931;-82
2021/10/30 02:51:02;;;;;;;;;;;;;;;11.95;nan;96778.31;5074604;28;19924;-83
2021/10/30 02:53:29;;;;;;;;;;;;;;;11.98;nan;96791.34;5065713;28;20366;-82
2021/10/30 02:55:58;;;;;;;;;;;;;;;12.13;nan;96780.88;5040463;28;19931;-83
2021/10/30 02:58:33;;;;;;;;;;;;;;;12.27;nan;96773.69;5040384;28;19924;-83
2021/10/30 03:01:25;;;;;;;;;;;;;;;12.63;nan;96759.88;5066586;28;19924;-83
2021/10/30 03:03:55;;;;;;;;;;;;;;;12.49;nan;96771.16;5073524;28;20645;-83
2021/10/30 03:06:23;;;;;;;;;;;;;;;12.28;nan;96747.22;5056934;28;19924;-83
2021/10/30 03:08:50;;;;;;;;;;;;;;;12.12;nan;96775.75;5077085;28;19924;-82
2021/10/30 03:11:18;;;;;;;;;;;;;;;12.73;nan;96758.47;5059210;28;19924;-83
2021/10/30 03:13:46;;;;;;;;;;;;;;;12.92;nan;96744.16;5074514;28;19932;-83
2021/10/30 03:16:13;;;;;;;;;;;;;;;13.04;nan;96755.00;5103513;28;19992;-83
2021/10/30 03:18:40;;;;;;;;;;;;;;;13.31;nan;96726.47;5074271;28;20325;-83
2021/10/30 03:21:07;;;;;;;;;;;;;;;12.87;nan;96733.66;5062803;28;19973;-83
2021/10/30 03:23:34;;;;;;;;;;;;;;;13.18;nan;96720.47;5073195;28;19931;-83
2021/10/30 03:26:02;;;;;;;;;;;;;;;12.71;nan;96730.19;5086898;28;19924;-83
2021/10/30 03:28:29;;;;;;;;;;;;;;;13.05;nan;96741.75;5086070;28;19925;-83
2021/10/30 03:30:57;;;;;;;;;;;;;;;13.51;nan;96728.41;5064108;28;19935;-83
2021/10/30 03:33:24;;;;;;;;;;;;;;;13.41;nan;96708.19;5059251;28;20273;-83
2021/10/30 03:35:51;;;;;;;;;;;;;;;13.29;nan;96700.16;5074082;28;19924;-83
2021/10/30 03:38:19;;;;;;;;;;;;;;;12.95;nan;96709.53;5044167;28;19931;-83
2021/10/30 03:40:46;;;;;;;;;;;;;;;12.72;nan;96712.09;5074001;28;19925;-83
2021/10/30 03:43:14;;;;;;;;;;;;;;;12.91;nan;96706.16;5073923;28;19930;-83
2021/10/30 03:45:41;;;;;;;;;;;;;;;13.48;nan;96690.88;5073871;28;19924;-83
2021/10/30 03:48:08;;;;;;;;;;;;;;;12.19;nan;96694.94;5063938;28;19924;-83
2021/10/30 03:50:36;;;;;;;;;;;;;;;12.89;nan;96672.28;5048488;28;19924;-83
2021/10/30 03:53:04;;;;;;;;;;;;;;;12.74;nan;96684.38;5074286;28;19924;-83
2021/10/30 03:55:33;;;;;;;;;;;;;;;11.81;nan;96670.06;5042778;28;20394;-83
2021/10/30 03:58:01;;;;;;;;;;;;;;;12.45;nan;96676.16;5052544;28;19930;-83
2021/10/30 04:00:28;;;;;;;;;;;;;;;12.33;nan;96671.69;5045573;28;19977;-84
2021/10/30 04:02:56;;;;;;;;;;;;;;;12.70;nan;96671.84;5067817;28;19930;-84
2021/10/30 04:05:25;;;;;;;;;;;;;;;11.74;nan;96687.22;5037539;28;20131;-84
2021/10/30 04:07:53;;;;;;;;;;;;;;;12.55;nan;96671.97;5069904;28;19932;-84
2021/10/30 04:10:20;;;;;;;;;;;;;;;12.92;nan;96671.28;5073818;28;19939;-83
2021/10/30 04:12:52;;;;;;;;;;;;;;;13.34;nan;96679.81;5072393;28;19924;-83
2021/10/30 04:15:19;;;;;;;;;;;;;;;13.01;nan;96657.88;5067348;28;19924;-83
2021/10/30 04:17:46;;;;;;;;;;;;;;;13.32;nan;96645.88;5077846;28;19933;-83
2021/10/30 04:20:13;;;;;;;;;;;;;;;13.44;nan;96651.09;5072419;28;19925;-83
2021/10/30 04:22:41;;;;;;;;;;;;;;;13.63;nan;96646.59;5046587;28;19924;-83
2021/10/30 04:25:08;;;;;;;;;;;;;;;13.26;nan;96645.06;5032747;28;19980;-83
2021/10/30 04:27:35;;;;;;;;;;;;;;;12.52;nan;96633.72;5081360;28;20287;-83
2021/10/30 04:30:03;;;;;;;;;;;;;;;13.40;nan;96632.94;5055512;28;19924;-83
2021/10/30 04:32:30;;;;;;;;;;;;;;;12.71;nan;96636.94;5049447;28;19924;-83
2021/10/30 04:35:09;;;;;;;;;;;;;;;13.50;nan;96643.47;5038945;28;19979;-83
2021/10/30 04:37:36;;;;;;;;;;;;;;;12.85;nan;96652.09;5068918;28;19924;-83
2021/10/30 04:40:04;;;;;;;;;;;;;;;13.21;nan;96651.44;5063658;28;19924;-83
2021/10/30 04:42:32;;;;;;;;;;;;;;;12.32;nan;96649.78;5072353;28;19930;-83
2021/10/30 04:44:59;;;;;;;;;;;;;;;12.51;nan;96651.78;5073201;28;19930;-83
2021/10/30 04:47:26;;;;;;;;;;;;;;;12.93;nan;96639.19;5073314;28;19928;-83
2021/10/30 04:49:53;;;;;;;;;;;;;;;12.62;nan;96621.09;5046180;28;19924;-83
2021/10/30 04:52:21;;;;;;;;;;;;;;;12.98;nan;96630.06;5040445;28;19932;-83
2021/10/30 04:54:48;;;;;;;;;;;;;;;12.50;nan;96641.06;5096024;28;20288;-84
2021/10/30 04:57:16;;;;;;;;;;;;;;;12.86;nan;96632.00;5029740;28;20014;-83
2021/10/30 04:59:43;;;;;;;;;;;;;;;12.96;nan;96612.97;5042615;28;19924;-83
2021/10/30 05:02:10;;;;;;;;;;;;;;;13.05;nan;96613.59;5044331;28;19973;-83
2021/10/30 05:04:37;;;;;;;;;;;;;;;13.44;nan;96614.63;5063199;28;19928;-83
2021/10/30 05:07:05;;;;;;;;;;;;;;;13.75;nan;96611.72;5068756;28;19928;-83
2021/10/30 05:09:32;;;;;;;;;;;;;;;12.41;nan;96614.00;5090826;28;19924;-83
2021/10/30 05:12:00;;;;;;;;;;;;;;;12.99;nan;96609.94;5070278;28;19924;-83
2021/10/30 05:14:27;;;;;;;;;;;;;;;13.44;nan;96597.78;5060126;28;19925;-83
2021/10/30 05:16:54;;;;;;;;;;;;;;;12.68;nan;96593.91;5071610;28;19924;-83
2021/10/30 05:19:22;;;;;;;;;;;;;;;13.29;nan;96599.22;5068902;28;19924;-83
2021/10/30 05:21:49;;;;;;;;;;;;;;;13.02;nan;96585.78;5070314;28;19924;-83
2021/10/30 05:24:16;;;;;;;;;;;;;;;13.24;nan;96578.28;5058641;28;19931;-83
2021/10/30 05:26:44;;;;;;;;;;;;;;;13.59;nan;96575.94;5063039;28;19954;-84
2021/10/30 05:29:11;;;;;;;;;;;;;;;13.49;nan;96593.47;5072294;28;19972;-84
2021/10/30 05:31:38;;;;;;;;;;;;;;;12.34;nan;96572.44;5082076;28;19950;-84
2021/10/30 05:34:06;;;;;;;;;;;;;;;12.50;nan;96585.06;5054601;28;19924;-84
2021/10/30 05:37:08;;;;;;;;;;;;;;;12.82;nan;96572.63;5061358;28;19942;-84
2021/10/30 05:40:06;;;;;;;;;;;;;;;12.69;nan;96559.00;5065430;28;19925;-84
2021/10/30 05:42:36;;;;;;;;;;;;;;;12.78;nan;96570.03;5070951;28;19972;-83
2021/10/30 05:45:04;;;;;;;;;;;;;;;12.84;nan;96558.09;5079733;28;19985;-83
2021/10/30 05:47:33;;;;;;;;;;;;;;;13.04;nan;96555.22;5054862;28;19932;-83
2021/10/30 05:50:02;;;;;;;;;;;;;;;13.03;nan;96553.69;5058422;28;19925;-84
2021/10/30 05:52:29;;;;;;;;;;;;;;;12.24;nan;96585.06;5075902;28;19924;-84
2021/10/30 05:54:56;;;;;;;;;;;;;;;13.03;nan;96573.28;5090901;28;19961;-83
2021/10/30 05:57:25;;;;;;;;;;;;;;;12.77;nan;96548.13;5059335;28;19924;-84
2021/10/30 05:59:52;;;;;;;;;;;;;;;12.83;nan;96551.72;5052333;28;19931;-83
2021/10/30 06:02:20;;;;;;;;;;;;;;;12.82;nan;96549.41;5081367;28;20276;-83
2021/10/30 06:04:48;;;;;;;;;;;;;;;12.62;nan;96556.66;5097087;28;19924;-84
2021/10/30 06:07:16;;;;;;;;;;;;;;;11.81;nan;96544.16;5066075;28;19928;-84
2021/10/30 06:09:43;;;;;;;;;;;;;;;12.91;nan;96543.63;5046303;28;19927;-84
2021/10/30 06:12:10;;;;;;;;;;;;;;;12.89;nan;96535.72;5104557;28;19928;-84
2021/10/30 06:14:38;;;;;;;;;;;;;;;12.91;nan;96519.19;5072790;28;19927;-84
2021/10/30 06:17:05;;;;;;;;;;;;;;;13.00;nan;96507.81;5044703;28;20763;-83
2021/10/30 06:19:33;;;;;;;;;;;;;;;13.10;nan;96525.94;5029637;28;19925;-84
2021/10/30 06:22:00;;;;;;;;;;;;;;;13.05;nan;96500.69;5090201;28;20284;-83
2021/10/30 06:24:27;;;;;;;;;;;;;;;12.71;nan;96511.66;5070963;28;19929;-84
2021/10/30 06:26:55;;;;;;;;;;;;;;;12.97;nan;96527.63;5041045;28;19951;-83
2021/10/30 06:29:24;;;;;;;;;;;;;;;13.36;nan;96509.03;5075210;28;20410;-83
2021/10/30 06:31:52;;;;;;;;;;;;;;;12.53;nan;96500.06;5061041;28;19924;-83
2021/10/30 06:34:20;;;;;;;;;;;;;;;13.06;nan;96496.63;5088491;28;19928;-83
2021/10/30 06:36:47;;;;;;;;;;;;;;;13.25;nan;96492.94;5066857;28;19923;-84
2021/10/30 06:39:14;;;;;;;;;;;;;;;13.13;nan;96484.94;5062255;28;19978;-84
2021/10/30 06:41:44;;;;;;;;;;;;;;;13.64;nan;96498.69;5026258;28;19931;-84
2021/10/30 06:44:12;;;;;;;;;;;;;;;12.20;nan;96483.75;5076943;28;19947;-84
2021/10/30 06:46:39;;;;;;;;;;;;;;;12.72;nan;96501.25;5073799;28;19931;-84
2021/10/30 06:49:11;;;;;;;;;;;;;;;12.87;nan;96507.44;5070667;28;19924;-84
2021/10/30 06:51:39;;;;;;;;;;;;;;;13.08;nan;96494.88;5088416;28;20307;-84
2021/10/30 06:54:08;;;;;;;;;;;;;;;12.92;nan;96503.91;5068753;28;19952;-84
2021/10/30 06:56:36;;;;;;;;;;;;;;;13.31;nan;96510.53;5073421;28;19924;-85
2021/10/30 06:59:04;;;;;;;;;;;;;;;12.32;nan;96499.38;5086872;28;19977;-84
2021/10/30 07:01:33;;;;;;;;;;;;;;;13.13;nan;96496.16;5066272;28;19930;-84
2021/10/30 07:04:01;;;;;;;;;;;;;;;13.25;nan;96503.38;5063196;28;19968;-85
2021/10/30 07:06:29;;;;;;;;;;;;;;;12.61;nan;96490.72;5097335;28;19924;-83
2021/10/30 07:08:56;;;;;;;;;;;;;;;12.28;nan;96495.28;5082190;28;20263;-82
2021/10/30 07:11:23;;;;;;;;;;;;;;;12.72;nan;96506.84;5092569;28;19924;-82
2021/10/30 07:13:51;;;;;;;;;;;;;;;12.72;nan;96490.78;5066407;28;20387;-82
2021/10/30 07:16:18;;;;;;;;;;;;;;;12.33;nan;96491.75;5072728;28;19928;-82
2021/10/30 07:18:45;;;;;;;;;;;;;;;12.59;nan;96492.47;5068355;28;19931;-82
2021/10/30 07:21:13;;;;;;;;;;;;;;;13.03;nan;96494.81;5079579;28;19924;-82
2021/10/30 07:23:40;;;;;;;;;;;;;;;12.50;nan;96495.44;5096921;28;19924;-82
2021/10/30 07:26:08;;;;;;;;;;;;;;;12.78;nan;96471.22;5115033;28;19932;-82
2021/10/30 07:28:35;;;;;;;;;;;;;;;12.52;nan;96479.69;5080141;28;19924;-82
2021/10/30 07:31:18;;;;;;;;;;;;;;;12.97;nan;96499.59;5114937;28;19931;-82
2021/10/30 07:33:46;;;;;;;;;;;;;;;12.22;nan;96509.22;5086878;28;19924;-82
2021/10/30 07:36:13;;;;;;;;;;;;;;;12.07;nan;96519.00;5062009;28;19953;-82
2021/10/30 07:38:40;;;;;;;;;;;;;;;11.73;nan;96512.28;5054318;28;20317;-82
2021/10/30 07:41:08;;;;;;;;;;;;;;;11.26;nan;96512.69;5069124;28;19931;-81
2021/10/30 07:43:35;;;;;;;;;;;;;;;11.34;nan;96507.47;5058587;28;20298;-81
2021/10/30 07:46:03;;;;;;;;;;;;;;;11.84;nan;96506.81;5113923;28;20252;-82
2021/10/30 07:48:30;;;;;;;;;;;;;;;12.47;nan;96493.66;5094917;28;19930;-81
2021/10/30 07:50:57;;;;;;;;;;;;;;;11.91;nan;96494.41;5061643;28;19931;-82
2021/10/30 07:53:25;;;;;;;;;;;;;;;12.07;nan;96491.03;5085680;28;20295;-82
2021/10/30 07:55:52;;;;;;;;;;;;;;;11.18;nan;96489.22;5091994;28;20359;-82
2021/10/30 07:58:20;;;;;;;;;;;;;;;12.17;nan;96483.97;5111107;28;19924;-82
2021/10/30 08:00:48;;;;;;;;;;;;;;;12.62;nan;96478.25;5064805;28;19928;-82
2021/10/30 08:03:15;;;;;;;;;;;;;;;12.58;nan;96486.13;5076561;28;19980;-84
2021/10/30 08:05:43;;;;;;;;;;;;;;;12.60;nan;96483.56;5073602;28;20299;-84
2021/10/30 08:08:11;;;;;;;;;;;;;;;12.99;nan;96491.47;5091968;28;19930;-84
2021/10/30 08:10:39;;;;;;;;;;;;;;;13.36;nan;96476.13;5056690;28;20395;-84
2021/10/30 08:13:11;;;;;;;;;;;;;;;12.90;nan;96481.22;5066311;28;19931;-81
2021/10/30 08:15:38;;;;;;;;;;;;;;;12.88;nan;96488.59;5098518;28;19935;-86
2021/10/30 08:18:05;;;;;;;;;;;;;;;12.39;nan;96478.56;5071612;28;20302;-80
2021/10/30 08:20:34;;;;;;;;;;;;;;;13.02;nan;96479.28;5090724;28;19931;-80
2021/10/30 08:23:01;;;;;;;;;;;;;;;12.15;nan;96490.06;5068784;28;19924;-80
2021/10/30 08:25:28;;;;;;;;;;;;;;;12.62;nan;96486.66;5100735;28;19928;-80
2021/10/30 08:27:55;;;;;;;;;;;;;;;12.62;nan;96491.47;5071528;28;19924;-80
2021/10/30 08:30:23;;;;;;;;;;;;;;;12.83;nan;96495.69;5080059;28;19924;-80
2021/10/30 08:32:50;;;;;;;;;;;;;;;12.33;nan;96503.72;5101343;28;20380;-83
2021/10/30 08:35:17;;;;;;;;;;;;;;;12.45;nan;96493.38;5106604;28;19924;-83
2021/10/30 08:37:44;;;;;;;;;;;;;;;12.37;nan;96497.91;5082943;28;20279;-83
2021/10/30 08:40:13;;;;;;;;;;;;;;;11.80;nan;96495.06;5068600;28;19928;-80
2021/10/30 08:42:54;;;;;;;;;;;;;;;12.14;nan;96496.94;5092313;28;19924;-81
2021/10/30 08:45:21;;;;;;;;;;;;;;;11.76;nan;96496.53;5105192;28;19923;-79
2021/10/30 08:47:49;;;;;;;;;;;;;;;12.31;nan;96488.69;5086102;28;19928;-79
2021/10/30 08:50:16;;;;;;;;;;;;;;;12.53;nan;96486.06;5093999;28;19932;-81
2021/10/30 08:52:43;;;;;;;;;;;;;;;12.66;nan;96478.78;5091224;28;19924;-83
2021/10/30 08:55:10;;;;;;;;;;;;;;;12.53;nan;96477.66;5079101;28;19924;-82
2021/10/30 08:57:38;;;;;;;;;;;;;;;12.85;nan;96481.19;5101375;28;19923;-83
2021/10/30 09:00:19;;;;;;;;;;;;;;;12.86;nan;96488.34;5084693;28;19924;-81
2021/10/30 09:02:53;;;;;;;;;;;;;;;12.99;nan;96481.03;5072305;28;19928;-82
2021/10/30 09:05:23;;;;;;;;;;;;;;;13.04;nan;96488.72;5077694;28;20375;-81
2021/10/30 09:07:51;;;;;;;;;;;;;;;12.88;nan;96485.78;5063365;28;19925;-81
2021/10/30 09:10:22;;;;;;;;;;;;;;;12.90;nan;96489.63;5078418;28;19936;-81
2021/10/30 09:12:50;;;;;;;;;;;;;;;12.55;nan;96495.50;5079051;28;19924;-82
2021/10/30 09:15:20;;;;;;;;;;;;;;;12.61;nan;96493.53;5062612;28;19931;-81
2021/10/30 09:17:47;;;;;;;;;;;;;;;12.56;nan;96485.06;5097146;28;19924;-81
2021/10/30 09:20:15;;;;;;;;;;;;;;;12.73;nan;96481.13;5079329;28;19924;-81
2021/10/30 09:22:52;;;;;;;;;;;;;;;12.70;nan;96484.16;5098913;28;19924;-81
2021/10/30 09:25:19;;;;;;;;;;;;;;;12.41;nan;96488.00;5080543;28;19924;-82
2021/10/30 09:28:01;;;;;;;;;;;;;;;12.23;nan;96482.78;5079195;28;19931;-77
2021/10/30 09:30:31;;;;;;;;;;;;;;;12.57;nan;96481.00;5101731;28;19924;-82
2021/10/30 09:33:04;;;;;;;;;;;;;;;12.39;nan;96467.34;5066441;28;19928;-81
2021/10/30 09:35:32;;;;;;;;;;;;;;;12.17;nan;96472.78;5033607;28;19977;-82
2021/10/30 09:38:00;;;;;;;;;;;;;;;12.13;nan;96464.59;5091668;28;19928;-81
2021/10/30 09:40:29;;;;;;;;;;;;;;;11.95;nan;96461.41;5078787;28;19924;-82
2021/10/30 09:43:16;;;;;;;;;;;;;;;11.77;nan;96454.09;5061308;28;19930;-82
2021/10/30 09:45:46;;;;;;;;;;;;;;;12.17;nan;96462.38;5066546;28;20300;-82
2021/10/30 09:48:16;;;;;;;;;;;;;;;11.93;nan;96466.72;5059370;28;19924;-81
2021/10/30 09:50:43;;;;;;;;;;;;;;;12.23;nan;96462.41;5113650;28;19924;-82
2021/10/30 09:53:29;;;;;;;;;;;;;;;12.00;nan;96464.25;5078514;28;19923;-82
2021/10/30 09:56:05;;;;;;;;;;;;;;;12.06;nan;96473.44;5067110;28;20394;-82
2021/10/30 09:58:35;;;;;;;;;;;;;;;11.61;nan;96474.25;5078376;28;19938;-82
2021/10/30 10:01:19;;;;;;;;;;;;;;;11.90;nan;96476.09;5113668;28;19927;-82
2021/10/30 10:03:48;;;;;;;;;;;;;;;12.14;nan;96474.56;5093637;28;19923;-82
2021/10/30 10:06:17;;;;;;;;;;;;;;;11.90;nan;96482.47;5062306;28;19928;-81
2021/10/30 10:08:46;;;;;;;;;;;;;;;12.00;nan;96481.03;5094730;28;19924;-82
2021/10/30 10:11:15;;;;;;;;;;;;;;;11.93;nan;96492.66;5076662;28;19924;-82
2021/10/30 10:13:44;;;;;;;;;;;;;;;12.13;nan;96494.63;5076585;28;19985;-81
2021/10/30 10:16:15;;;;;;;;;;;;;;;12.37;nan;96490.25;5057780;28;19925;-81
2021/10/30 10:18:42;;;;;;;;;;;;;;;12.38;nan;96505.03;5076667;28;19924;-81
2021/10/30 10:21:15;;;;;;;;;;;;;;;12.40;nan;96505.31;5059703;28;19928;-81
2021/10/30 10:23:43;;;;;;;;;;;;;;;12.14;nan;96512.97;5059846;28;19931;-82
2021/10/30 10:26:11;;;;;;;;;;;;;;;12.43;nan;96526.72;5023487;28;19931;-81
2021/10/30 10:28:39;;;;;;;;;;;;;;;12.43;nan;96535.13;5059649;28;19928;-82
2021/10/30 10:31:10;;;;;;;;;;;;;;;12.34;nan;96522.03;5072931;28;19948;-81
2021/10/30 10:33:37;;;;;;;;;;;;;;;12.88;nan;96548.22;5071574;28;19924;-81
2021/10/30 10:36:14;;;;;;;;;;;;;;;12.30;nan;96535.50;5066982;28;19930;-82
2021/10/30 10:38:53;;;;;;;;;;;;;;;12.55;nan;96542.34;5075999;28;19924;-81
2021/10/30 10:41:39;;;;;;;;;;;;;;;12.46;nan;96548.88;5043071;28;19931;-81
2021/10/30 10:44:08;;;;;;;;;;;;;;;12.66;nan;96543.19;5076186;28;19924;-81
2021/10/30 10:46:47;;;;;;;;;;;;;;;13.32;nan;96559.75;5075847;28;19924;-81
2021/10/30 10:49:37;;;;;;;;;;;;;;;13.49;nan;96562.63;5081174;28;19977;-81
2021/10/30 10:52:15;;;;;;;;;;;;;;;13.19;nan;96561.44;5073240;28;20280;-81
2021/10/30 10:55:04;;;;;;;;;;;;;;;13.63;nan;96568.03;5074952;28;19924;-81
2021/10/30 10:57:32;;;;;;;;;;;;;;;13.33;nan;96563.31;5076189;28;19928;-81
2021/10/30 11:00:01;;;;;;;;;;;;;;;12.98;nan;96574.00;5065393;28;19928;-82
2021/10/30 11:02:31;;;;;;;;;;;;;;;13.10;nan;96584.06;5072157;28;19928;-81
2021/10/30 11:05:07;;;;;;;;;;;;;;;12.90;nan;96592.53;5053381;28;19925;-81
2021/10/30 11:07:36;;;;;;;;;;;;;;;13.29;nan;96593.59;5069266;28;19924;-80
2021/10/30 11:10:09;;;;;;;;;;;;;;;13.05;nan;96596.00;5097515;28;19928;-81
2021/10/30 11:12:37;;;;;;;;;;;;;;;13.22;nan;96594.09;5061611;28;19965;-82
2021/10/30 11:15:08;;;;;;;;;;;;;;;13.72;nan;96592.34;5093556;28;19924;-82
2021/10/30 11:17:36;;;;;;;;;;;;;;;13.34;nan;96585.25;5070059;28;20333;-81
2021/10/30 11:20:14;;;;;;;;;;;;;;;13.16;nan;96590.47;5095919;28;19924;-86
2021/10/30 11:22:54;;;;;;;;;;;;;;;12.45;nan;96589.34;5046137;28;19931;-86
2021/10/30 11:25:21;;;;;;;;;;;;;;;13.07;nan;96590.66;5083559;28;19924;-85
2021/10/30 11:27:52;;;;;;;;;;;;;;;13.25;nan;96598.69;5107422;28;19924;-84
2021/10/30 11:30:38;;;;;;;;;;;;;;;13.32;nan;96599.00;5076544;28;19958;-84
2021/10/30 11:33:22;;;;;;;;;;;;;;;13.20;nan;96602.22;5077638;28;20383;-84
2021/10/30 11:35:57;;;;;;;;;;;;;;;13.00;nan;96605.13;5085541;28;20363;-80
2021/10/30 11:38:25;;;;;;;;;;;;;;;12.82;nan;96600.63;5092771;28;19924;-79
2021/10/30 11:40:57;;;;;;;;;;;;;;;13.17;nan;96606.03;5070874;28;19925;-79
2021/10/30 11:43:28;;;;;;;;;;;;;;;13.10;nan;96598.81;5089727;28;19933;-79
2021/10/30 11:46:02;;;;;;;;;;;;;;;13.06;nan;96603.91;5110187;28;19923;-80
2021/10/30 11:48:36;;;;;;;;;;;;;;;13.67;nan;96607.09;5105467;28;19928;-80
2021/10/30 11:51:05;;;;;;;;;;;;;;;13.79;nan;96598.25;5110064;28;19923;-80
2021/10/30 11:53:33;;;;;;;;;;;;;;;13.64;nan;96602.50;5077561;28;19928;-79
2021/10/30 11:56:07;;;;;;;;;;;;;;;13.54;nan;96596.31;5094023;28;19977;-80
2021/10/30 11:58:39;;;;;;;;;;;;;;;13.77;nan;96600.78;5076122;28;20283;-81
2021/10/30 12:01:21;;;;;;;;;;;;;;;13.57;nan;96608.59;5104220;28;20294;-80
2021/10/30 12:03:58;;;;;;;;;;;;;;;13.81;nan;96603.34;5101680;28;20417;-78
2021/10/30 12:06:49;;;;;;;;;;;;;;;13.67;nan;96609.91;5097121;28;19927;-81
2021/10/30 12:09:21;;;;;;;;;;;;;;;13.42;nan;96602.38;5068338;28;19924;-81
2021/10/30 12:11:49;;;;;;;;;;;;;;;13.26;nan;96612.22;5079627;28;19924;-80
2021/10/30 12:14:31;;;;;;;;;;;;;;;13.18;nan;96611.13;5091610;28;19924;-80
2021/10/30 12:16:59;;;;;;;;;;;;;;;13.15;nan;96611.34;5100455;28;20435;-81
2021/10/30 12:19:27;;;;;;;;;;;;;;;13.33;nan;96605.38;5083846;28;19925;-78
2021/10/30 12:22:01;;;;;;;;;;;;;;;13.51;nan;96619.75;5101346;28;19924;-80
2021/10/30 12:24:29;;;;;;;;;;;;;;;13.43;nan;96615.13;5062853;28;19924;-80
2021/10/30 12:27:02;;;;;;;;;;;;;;;13.41;nan;96612.03;5075163;28;19931;-80
2021/10/30 12:29:30;;;;;;;;;;;;;;;13.03;nan;96626.53;5068090;28;20291;-80
2021/10/30 12:32:04;;;;;;;;;;;;;;;12.90;nan;96615.75;5078137;28;19924;-80
2021/10/30 12:34:32;;;;;;;;;;;;;;;12.89;nan;96614.19;5068438;28;19938;-79
2021/10/30 12:37:04;;;;;;;;;;;;;;;12.67;nan;96617.59;5078999;28;19924;-80
2021/10/30 12:39:31;;;;;;;;;;;;;;;12.75;nan;96615.84;5077487;28;19973;-79
2021/10/30 12:42:04;;;;;;;;;;;;;;;13.26;nan;96620.63;5072088;28;19925;-80
2021/10/30 12:44:33;;;;;;;;;;;;;;;13.15;nan;96622.56;5088467;28;19957;-80
2021/10/30 12:47:01;;;;;;;;;;;;;;;13.51;nan;96628.16;5091953;28;19924;-80
2021/10/30 12:49:31;;;;;;;;;;;;;;;13.89;nan;96624.81;5065213;28;19924;-79
2021/10/30 12:52:09;;;;;;;;;;;;;;;13.98;nan;96635.06;5075360;28;19924;-78
2021/10/30 12:54:38;;;;;;;;;;;;;;;14.11;nan;96633.34;5078695;28;19928;-78
2021/10/30 12:57:18;;;;;;;;;;;;;;;14.33;nan;96625.00;5090039;28;19925;-78
2021/10/30 12:59:45;;;;;;;;;;;;;;;13.81;nan;96620.19;5084618;28;19924;-77
2021/10/30 13:02:22;;;;;;;;;;;;;;;14.17;nan;96642.53;5097322;28;19924;-78
2021/10/30 13:04:49;;;;;;;;;;;;;;;13.91;nan;96632.72;5094671;28;19992;-78
2021/10/30 13:07:17;;;;;;;;;;;;;;;13.56;nan;96640.69;5089932;28;19946;-78
2021/10/30 13:09:54;;;;;;;;;;;;;;;13.87;nan;96643.44;5089436;28;19924;-79
2021/10/30 13:12:22;;;;;;;;;;;;;;;13.97;nan;96648.31;5080693;28;19932;-79
2021/10/30 13:14:49;;;;;;;;;;;;;;;14.02;nan;96652.44;5089664;28;20680;-79
2021/10/30 13:17:16;;;;;;;;;;;;;;;14.23;nan;96650.97;5089640;28;19924;-79
2021/10/30 13:19:44;;;;;;;;;;;;;;;14.07;nan;96657.31;5091351;28;19928;-80